Flight Track Log - Related Links

Times and Time Zones

All times are in EDT time to prevent confusion due to time zone crossing. See the EJA703 flight status page for this flight to view local times or setup timezone preferences in your user account.

Time Position Orientation Groundspeed Altitude Reporting Facility
EDT Latitude Longitude Course Direction KTS MPH feet Rate Location/Type
Thu 07:47:43 PM 36.0725 -115.1719 219° Southwest 161 185 3,100  Level Los Angeles Center
Thu 07:48:25 PM 36.0381 -115.1914 205° Southwest 197 227 5,300 2,488 Climbing Los Angeles Center
Thu 07:49:05 PM 36.0022 -115.2083 201° Southwest 217 250 6,500 3,176 Climbing Los Angeles Center
Thu 07:50:07 PM 35.9253 -115.2281 192° South 269 310 10,700 3,242 Climbing Los Angeles Center
Thu 07:51:09 PM 35.8406 -115.2494 192° South 288 331 13,200 2,806 Climbing Los Angeles Center
Thu 07:52:11 PM 35.7406 -115.2772 193° South 336 387 16,500 3,387 Climbing Los Angeles Center
Thu 07:53:00 PM 35.6603 -115.2897 219° Southwest  Level FlightAware Approximate
Thu 07:53:13 PM 35.6367 -115.3508 210° Southwest 363 418 20,200  Level Los Angeles Center
Thu 07:54:15 PM 35.5658 -115.4450 227° Southwest 371 427 22,000 864 Climbing Los Angeles Center
Thu 07:55:18 PM 35.4919 -115.5456 228° Southwest 384 442 22,000  Level Los Angeles Center
Thu 07:56:20 PM 35.4186 -115.6431 227° Southwest 391 450 22,000  Level Los Angeles Center
Thu 07:57:22 PM 35.3447 -115.7408 227° Southwest 391 450 22,000  Level Los Angeles Center
Thu 07:58:24 PM 35.2714 -115.8314 225° Southwest 384 442 22,000  Level Los Angeles Center
Thu 07:59:26 PM 35.2072 -115.9231 229° Southwest 370 426 22,000  Level Los Angeles Center
Thu 08:00:28 PM 35.1256 -116.0294 227° Southwest 361 415 22,000  Level Los Angeles Center
Thu 08:01:30 PM 35.0553 -116.1192 226° Southwest 361 415 22,000  Level Los Angeles Center
Thu 08:02:32 PM 34.9872 -116.2086 227° Southwest 361 415 22,000  Level Los Angeles Center
Thu 08:03:34 PM 34.9614 -116.3250 255° West 359 413 22,000  Level Los Angeles Center
Thu 08:04:37 PM 34.9406 -116.4433 258° West 359 413 22,000  Level Los Angeles Center
Thu 08:05:39 PM 34.9203 -116.5592 258° West 356 410 22,000  Level Los Angeles Center
Thu 08:06:41 PM 34.8978 -116.6769 257° West 355 409 22,000  Level Los Angeles Center
Thu 08:07:43 PM 34.8719 -116.8181 257° West 356 410 22,000 -48 Level Los Angeles Center
Thu 08:08:45 PM 34.8492 -116.9358 257° West 357 411 21,900 -629 Descending Los Angeles Center
Thu 08:09:47 PM 34.8281 -117.0522 258° West 353 406 20,700 -1,113 Descending Los Angeles Center
Thu 08:10:49 PM 34.8044 -117.1681 256° West 353 406 19,600 -1,161 Descending Los Angeles Center
Thu 08:11:51 PM 34.7811 -117.2906 257° West 364 419 18,300 -1,258 Descending Los Angeles Center
Thu 08:12:53 PM 34.7581 -117.4125 257° West 369 425 17,000 -1,344 Descending Los Angeles Center
Thu 08:13:56 PM 34.7297 -117.5536 256° West 359 413 15,500 -1,344 Descending Los Angeles Center
Thu 08:14:58 PM 34.6947 -117.6669 249° West 370 426 14,200 -1,210 Descending Los Angeles Center
Thu 08:16:00 PM 34.6617 -117.7786 250° West 356 410 13,000 -1,113 Descending Los Angeles Center
Thu 08:17:02 PM 34.6281 -117.8894 250° West 351 404 11,900 -1,065 Descending Los Angeles Center
Thu 08:18:04 PM 34.5972 -117.9858 249° West 311 358 10,800 -968 Descending Los Angeles Center
Thu 08:19:06 PM 34.5692 -118.0767 249° West 291 335 9,900 -968 Descending Los Angeles Center
Thu 08:20:08 PM 34.5386 -118.1758 250° West 287 330 8,800 -919 Descending Los Angeles Center
Thu 08:21:10 PM 34.5086 -118.2628 247° West 281 323 8,000 -387 Descending Los Angeles Center
Thu 08:22:12 PM 34.4361 -118.2928 199° South 287 330 8,000 -480 Level Los Angeles Center
Thu 08:23:15 PM 34.3428 -118.3164 192° South 284 327 7,000 -480 Descending Los Angeles Center
Thu 08:24:17 PM 34.2664 -118.3311 189° South 278 320 7,000 -484 Level Los Angeles Center
Thu 08:25:19 PM 34.1908 -118.3136 169° South 277 319 6,000 -1,258 Descending Los Angeles Center
Thu 08:26:21 PM 34.1303 -118.3125 179° South 232 267 4,400 -1,645 Descending Los Angeles Center
Thu 08:27:23 PM 34.0894 -118.3569 222° Southwest 205 236 2,600 -1,452 Descending Los Angeles Center
Thu 08:28:25 PM 34.0550 -118.4047 229° Southwest 172 198 1,400 -1,016 Descending Los Angeles Center
Thu 08:29:27 PM 34.0292 -118.4375 226° Southwest 153 176 500 -629 Descending Los Angeles Center
Thu 08:30:29 PM 34.0139 -118.4553 224° Southwest 98 113 100 -387 Descending Los Angeles Center
Thu 08:32:00 PM 34.0158 -118.4513 North  Level Estimated
Thu 08:39:00 PM 34.0158 -118.4513 North  Level Estimated

Login

Don't have an account? Register now (free) for customized features, flight alerts, and more!